Open Full Screen Window  High Contrast Mode
September 05, 2015 8:14 AM EDT
Weather Information
Wind Direction
  ---
Wind Speed
  00 kt (0 mph)
Wind Gust
  00 kt (0 mph)
Altimeter
30.16 in
Visibility
10 SM
Temperature
20° C
68° F
Dewpoint
20° C
68° F
Humidity
100%
1hr Rain Fall
00.00 in.
24hr Rain Fall
00.00 in.
Sky Condition
Clear
VFR

METAR KI69 051214Z AUTO 00000KT 10SM CLR 20/20 A3016 RMK AO2 T01950195

*Background is not an actual portrayal of the airport.